createdAt,value
2022-10-13T00:02:29.574Z,22.70
2022-10-13T00:05:15.245Z,21.60
2022-10-13T00:08:00.966Z,22.17
2022-10-13T00:10:48.250Z,21.00
2022-10-13T00:13:33.750Z,20.93
2022-10-13T00:16:21.603Z,21.77
2022-10-13T00:19:06.645Z,21.67
2022-10-13T00:21:52.039Z,21.40
2022-10-13T00:24:37.008Z,23.03
2022-10-13T00:27:22.522Z,22.13
2022-10-13T00:30:07.958Z,22.20
2022-10-13T00:32:52.860Z,22.73
2022-10-13T00:35:49.110Z,23.17
2022-10-13T00:38:34.265Z,23.30
2022-10-13T00:41:20.267Z,23.07
2022-10-13T00:44:07.494Z,24.03
2022-10-13T00:46:52.399Z,23.53
2022-10-13T00:49:37.396Z,23.33
2022-10-13T00:52:25.301Z,24.73
2022-10-13T00:55:13.325Z,26.07
2022-10-13T00:58:05.123Z,24.10
2022-10-13T01:00:52.661Z,25.40
2022-10-13T01:03:38.550Z,23.40
2022-10-13T01:06:24.369Z,24.40
2022-10-13T01:09:09.432Z,23.50
2022-10-13T01:12:25.695Z,23.83
2022-10-13T01:15:16.798Z,23.70
2022-10-13T01:18:30.249Z,24.27
2022-10-13T01:21:15.210Z,24.43
2022-10-13T01:24:19.063Z,22.63
2022-10-13T01:27:12.674Z,24.30
2022-10-13T01:30:28.130Z,24.07
2022-10-13T01:33:45.473Z,24.03
2022-10-13T01:36:38.579Z,21.63
2022-10-13T01:39:26.774Z,21.30
2022-10-13T01:42:19.638Z,22.27
2022-10-13T01:45:09.378Z,23.17
2022-10-13T01:47:56.006Z,21.63
2022-10-13T01:50:41.540Z,23.17
2022-10-13T01:53:27.442Z,20.90
2022-10-13T01:56:12.584Z,21.17
2022-10-13T01:59:01.994Z,22.17
2022-10-13T02:01:53.131Z,22.40
2022-10-13T02:04:47.442Z,21.53
2022-10-13T02:07:46.778Z,23.20
2022-10-13T02:10:40.271Z,21.93
2022-10-13T02:13:28.171Z,22.77
2022-10-13T02:16:15.023Z,21.73
2022-10-13T02:19:03.086Z,21.60
2022-10-13T02:21:48.676Z,20.07
2022-10-13T02:24:33.622Z,21.13
2022-10-13T02:27:19.210Z,22.13
2022-10-13T02:30:05.458Z,22.73
2022-10-13T02:32:50.661Z,21.53
2022-10-13T02:35:35.759Z,23.20
2022-10-13T02:38:20.758Z,21.77
2022-10-13T02:41:06.410Z,20.90
2022-10-13T02:43:51.372Z,23.57
2022-10-13T02:46:36.215Z,22.70
2022-10-13T02:49:21.074Z,24.37
2022-10-13T02:52:07.006Z,22.20
2022-10-13T02:54:51.806Z,23.53
2022-10-13T02:57:36.740Z,23.00
2022-10-13T03:00:23.942Z,23.50
2022-10-13T03:03:09.816Z,22.70
2022-10-13T03:05:55.049Z,22.30
2022-10-13T03:08:39.851Z,22.63
2022-10-13T03:11:25.416Z,22.10
2022-10-13T03:14:10.579Z,23.27
2022-10-13T03:16:55.486Z,21.37
2022-10-13T03:19:40.476Z,22.57
2022-10-13T03:22:25.519Z,22.83
2022-10-13T03:25:11.083Z,22.13
2022-10-13T03:27:56.335Z,22.13
2022-10-13T03:30:42.210Z,22.50
2022-10-13T03:33:27.500Z,21.70
2022-10-13T03:36:12.974Z,22.17
2022-10-13T03:38:58.260Z,21.70
2022-10-13T03:41:43.130Z,21.20
2022-10-13T03:44:28.209Z,22.20
2022-10-13T03:47:13.360Z,21.53
2022-10-13T03:49:58.317Z,22.60
2022-10-13T03:52:43.310Z,23.07
2022-10-13T03:55:28.168Z,22.53
2022-10-13T03:58:13.036Z,23.87
2022-10-13T04:01:03.887Z,22.33
2022-10-13T04:03:50.049Z,23.17
2022-10-13T04:06:35.202Z,23.60
2022-10-13T04:09:20.550Z,23.93
2022-10-13T04:12:06.193Z,23.00
2022-10-13T04:14:51.312Z,23.70
2022-10-13T04:17:36.204Z,23.37
2022-10-13T04:20:21.228Z,24.53
2022-10-13T04:23:07.216Z,23.07
2022-10-13T04:25:52.431Z,23.03
2022-10-13T04:28:39.710Z,22.83
2022-10-13T04:31:24.966Z,21.90
2022-10-13T04:34:10.826Z,22.17
2022-10-13T04:36:55.909Z,23.20
2022-10-13T04:39:40.878Z,23.30
2022-10-13T04:42:25.800Z,23.20
2022-10-13T04:45:11.245Z,23.73
2022-10-13T04:47:56.328Z,24.77
2022-10-13T04:50:41.298Z,23.27
2022-10-13T04:53:27.713Z,22.90
2022-10-13T04:56:17.550Z,22.50
2022-10-13T04:59:05.449Z,23.93
2022-10-13T05:01:50.549Z,23.67
2022-10-13T05:04:36.103Z,23.77
2022-10-13T05:07:20.938Z,24.80
2022-10-13T05:10:06.239Z,24.63
2022-10-13T05:12:52.707Z,23.50
2022-10-13T05:15:39.308Z,22.83
2022-10-13T05:18:24.942Z,22.60
2022-10-13T05:21:13.325Z,23.33
2022-10-13T05:23:58.992Z,21.97
2022-10-13T05:26:44.149Z,23.30
2022-10-13T05:29:29.084Z,23.40
2022-10-13T05:32:14.490Z,24.37
2022-10-13T05:34:59.383Z,23.37
2022-10-13T05:37:44.257Z,23.30
2022-10-13T05:40:29.616Z,23.10
2022-10-13T05:43:15.148Z,25.10
2022-10-13T05:46:01.213Z,28.23
2022-10-13T05:48:46.327Z,30.20
2022-10-13T05:51:37.639Z,29.60
2022-10-13T05:54:32.060Z,26.77
2022-10-13T05:57:26.147Z,26.33
2022-10-13T06:00:15.285Z,25.97
2022-10-13T06:03:14.490Z,26.57
2022-10-13T06:05:59.508Z,26.08
2022-10-13T06:08:44.718Z,27.90
2022-10-13T06:11:29.859Z,28.20
2022-10-13T06:14:14.683Z,26.20
2022-10-13T06:16:59.740Z,26.07
2022-10-13T06:19:44.545Z,25.20
2022-10-13T06:22:29.524Z,23.40
2022-10-13T06:25:14.777Z,23.57
2022-10-13T06:28:00.184Z,23.73
2022-10-13T06:30:45.938Z,23.70
2022-10-13T06:33:31.160Z,22.67
2022-10-13T06:36:16.819Z,22.33
2022-10-13T06:39:01.712Z,25.10
2022-10-13T06:41:46.748Z,23.80
2022-10-13T06:44:32.276Z,22.83
2022-10-13T06:47:17.435Z,23.07
2022-10-13T06:50:02.969Z,23.70
2022-10-13T06:52:48.504Z,23.70
2022-10-13T06:55:33.693Z,24.23
2022-10-13T06:58:18.982Z,23.35
2022-10-13T07:01:05.830Z,23.25
2022-10-13T07:03:51.899Z,23.40
2022-10-13T07:06:37.165Z,22.52
2022-10-13T07:09:22.229Z,21.92
2022-10-13T07:12:07.589Z,21.93
2022-10-13T07:14:52.713Z,22.40
2022-10-13T07:17:37.750Z,22.40
2022-10-13T07:20:24.809Z,22.20
2022-10-13T07:23:10.298Z,22.17
2022-10-13T07:25:55.797Z,22.77
2022-10-13T07:28:40.956Z,28.13
2022-10-13T07:31:27.379Z,20.93
2022-10-13T07:34:14.033Z,20.50
2022-10-13T07:36:59.065Z,21.27
2022-10-13T07:39:44.119Z,21.70
2022-10-13T07:42:29.701Z,20.95
2022-10-13T07:45:16.232Z,19.52
2022-10-13T07:48:01.372Z,20.17
2022-10-13T07:50:46.394Z,18.98
2022-10-13T07:53:31.862Z,19.70
2022-10-13T07:56:17.167Z,19.40
2022-10-13T07:59:03.087Z,18.63
2022-10-13T08:01:48.626Z,19.58
2022-10-13T08:04:34.909Z,18.27
2022-10-13T08:07:20.773Z,18.17
2022-10-13T08:10:10.030Z,18.80
2022-10-13T08:12:55.553Z,18.00
2022-10-13T08:15:42.280Z,19.27
2022-10-13T08:18:28.753Z,18.90
2022-10-13T08:24:21.408Z,17.08
2022-10-13T08:27:06.416Z,16.20
2022-10-13T08:29:55.232Z,16.17
2022-10-13T08:32:40.407Z,16.65
2022-10-13T08:35:25.751Z,16.10
2022-10-13T08:38:13.859Z,15.60
2022-10-13T08:41:02.483Z,14.93
2022-10-13T08:44:32.974Z,15.02
2022-10-13T08:47:30.021Z,15.77
2022-10-13T08:50:19.225Z,15.18
2022-10-13T08:53:12.794Z,14.00
2022-10-13T08:56:04.982Z,14.25
2022-10-13T08:58:52.223Z,14.43
2022-10-13T09:01:37.755Z,14.05
2022-10-13T09:04:26.166Z,13.80
2022-10-13T09:07:18.593Z,13.63
2022-10-13T09:10:04.896Z,13.80
2022-10-13T09:12:49.930Z,15.43
2022-10-13T09:15:44.698Z,14.15
2022-10-13T09:18:32.485Z,14.30
2022-10-13T09:21:24.645Z,12.90
2022-10-13T09:24:17.788Z,13.10
2022-10-13T09:27:12.453Z,12.93
2022-10-13T09:29:57.323Z,12.43
2022-10-13T09:32:42.073Z,11.98
2022-10-13T09:35:27.106Z,13.00
2022-10-13T09:38:15.333Z,12.77
2022-10-13T09:41:02.836Z,12.27
2022-10-13T09:43:47.891Z,12.10
2022-10-13T09:46:37.984Z,11.43
2022-10-13T09:49:39.507Z,11.88
2022-10-13T09:52:24.936Z,11.25
2022-10-13T09:55:32.601Z,10.93
2022-10-13T09:58:30.948Z,12.00
2022-10-13T10:01:25.455Z,10.88
2022-10-13T10:04:16.404Z,11.18
2022-10-13T10:07:09.564Z,11.07
2022-10-13T10:09:59.442Z,10.90
2022-10-13T10:12:45.097Z,10.35
2022-10-13T10:15:43.181Z,9.40
2022-10-13T10:18:46.540Z,10.20
2022-10-13T10:21:48.602Z,10.38
2022-10-13T10:24:36.436Z,9.40
2022-10-13T10:27:28.153Z,9.10
2022-10-13T10:30:16.244Z,9.85
2022-10-13T10:33:12.015Z,9.57
2022-10-13T10:36:17.702Z,9.65
2022-10-13T10:39:15.360Z,8.88
2022-10-13T10:42:20.357Z,9.48
2022-10-13T10:45:18.021Z,8.85
2022-10-13T10:48:23.459Z,9.57
2022-10-13T10:51:11.089Z,9.43
2022-10-13T10:54:20.065Z,9.13
2022-10-13T10:57:47.685Z,9.25
2022-10-13T11:00:48.358Z,8.27
2022-10-13T11:03:52.107Z,9.70
2022-10-13T11:06:38.474Z,9.80
2022-10-13T11:09:42.179Z,9.95
2022-10-13T11:12:51.762Z,9.38
2022-10-13T11:15:45.148Z,9.23
2022-10-13T11:18:54.876Z,9.18
2022-10-13T11:21:58.574Z,9.65
2022-10-13T11:24:59.636Z,8.07
2022-10-13T11:27:44.889Z,8.40
2022-10-13T11:30:45.576Z,8.60
2022-10-13T11:33:39.988Z,8.85
2022-10-13T11:36:32.821Z,8.88
2022-10-13T11:39:21.054Z,8.68
2022-10-13T11:42:48.654Z,8.55
2022-10-13T11:46:09.593Z,8.45
2022-10-13T11:49:39.593Z,8.43
2022-10-13T11:52:46.368Z,7.90
2022-10-13T11:55:50.914Z,7.97
2022-10-13T11:58:42.196Z,8.02
2022-10-13T12:01:27.380Z,7.95
2022-10-13T12:04:15.162Z,6.93
2022-10-13T12:07:11.878Z,7.07
2022-10-13T12:09:57.705Z,6.70
2022-10-13T12:12:48.315Z,6.40
2022-10-13T12:15:35.637Z,6.20
2022-10-13T12:18:27.371Z,5.80
2022-10-13T12:21:22.348Z,5.65
2022-10-13T12:24:10.087Z,6.40
2022-10-13T12:26:56.477Z,6.28
2022-10-13T12:29:41.845Z,6.20
2022-10-13T12:32:33.630Z,6.15
2022-10-13T12:35:26.874Z,6.40
2022-10-13T12:38:19.231Z,6.22
2022-10-13T12:41:05.529Z,6.50
2022-10-13T12:43:51.587Z,6.25
2022-10-13T12:46:50.472Z,6.93
2022-10-13T12:49:36.915Z,6.28
2022-10-13T12:52:24.677Z,6.50
2022-10-13T12:55:16.245Z,5.88
2022-10-13T12:58:02.271Z,5.10
2022-10-13T13:00:55.748Z,6.47
2022-10-13T13:03:43.206Z,5.45
2022-10-13T13:06:32.831Z,5.10
2022-10-13T13:09:40.820Z,5.38
2022-10-13T13:12:28.140Z,5.25
2022-10-13T13:15:25.612Z,5.65
2022-10-13T13:18:26.420Z,4.80
2022-10-13T13:21:14.516Z,5.45
2022-10-13T13:24:01.489Z,4.90
2022-10-13T13:26:50.779Z,5.10
2022-10-13T13:29:38.106Z,5.55
2022-10-13T13:32:25.490Z,5.15
2022-10-13T13:35:11.119Z,4.80
2022-10-13T13:37:56.408Z,5.00
2022-10-13T13:40:41.461Z,5.22
2022-10-13T13:43:26.722Z,4.70
2022-10-13T13:46:30.241Z,4.45
2022-10-13T13:49:17.612Z,4.57
2022-10-13T13:52:03.074Z,4.57
2022-10-13T13:54:49.674Z,4.75
2022-10-13T13:57:34.652Z,5.20
2022-10-13T14:00:20.056Z,5.13
2022-10-13T14:03:05.611Z,4.97
2022-10-13T14:05:51.061Z,5.10
2022-10-13T14:08:36.792Z,5.53
2022-10-13T14:11:22.270Z,5.35
2022-10-13T14:14:07.384Z,5.13
2022-10-13T14:16:52.800Z,5.13
2022-10-13T14:19:38.149Z,5.28
2022-10-13T14:22:26.869Z,5.55
2022-10-13T14:25:12.316Z,5.57
2022-10-13T14:27:57.688Z,5.95
2022-10-13T14:30:42.945Z,5.88
2022-10-13T14:33:27.779Z,5.68
2022-10-13T14:36:14.834Z,5.85
2022-10-13T14:39:03.628Z,5.90
2022-10-13T14:41:49.151Z,5.65
2022-10-13T14:44:34.718Z,5.60
2022-10-13T14:47:20.378Z,5.57
2022-10-13T14:50:06.322Z,6.20
2022-10-13T14:52:51.907Z,5.85
2022-10-13T14:55:37.162Z,5.80
2022-10-13T14:58:22.610Z,6.18
2022-10-13T15:01:09.239Z,5.28
2022-10-13T15:03:54.925Z,7.70
2022-10-13T15:06:41.577Z,6.55
2022-10-13T15:09:38.682Z,9.38
2022-10-13T15:12:34.059Z,5.60
2022-10-13T15:15:20.943Z,6.18
2022-10-13T15:18:06.217Z,6.70
2022-10-13T15:20:52.565Z,6.43
2022-10-13T15:23:38.043Z,7.03
2022-10-13T15:26:23.314Z,7.65
2022-10-13T15:29:08.607Z,7.90
2022-10-13T15:32:08.019Z,8.93
2022-10-13T15:34:53.795Z,11.85
2022-10-13T15:37:39.050Z,12.75
2022-10-13T15:40:25.024Z,13.00
2022-10-13T15:43:11.096Z,14.07
2022-10-13T15:46:01.292Z,12.68
2022-10-13T15:48:48.099Z,14.50
2022-10-13T15:51:33.997Z,14.40
2022-10-13T15:54:21.185Z,16.40
2022-10-13T15:57:06.551Z,15.85
2022-10-13T15:59:51.810Z,18.05
2022-10-13T16:02:37.258Z,16.25
2022-10-13T16:05:22.528Z,18.35
2022-10-13T16:08:07.801Z,18.67
2022-10-13T16:10:53.069Z,20.10
2022-10-13T16:13:39.444Z,20.60
2022-10-13T16:16:24.798Z,18.60
2022-10-13T16:19:10.464Z,18.67
2022-10-13T16:21:55.612Z,20.05
2022-10-13T16:24:40.581Z,19.60
2022-10-13T16:27:25.613Z,19.48
2022-10-13T16:30:13.951Z,21.58
2022-10-13T16:33:01.559Z,20.38
2022-10-13T16:35:49.486Z,20.45
2022-10-13T16:38:35.037Z,19.80
2022-10-13T16:41:20.558Z,20.45
2022-10-13T16:44:05.976Z,21.13
2022-10-13T16:46:51.241Z,21.85
2022-10-13T16:49:36.571Z,22.05
2022-10-13T16:52:21.716Z,22.00
2022-10-13T16:55:07.800Z,26.58
2022-10-13T16:57:53.061Z,24.23
2022-10-13T17:00:39.360Z,24.67
2022-10-13T17:03:24.382Z,25.70
2022-10-13T17:06:10.940Z,25.02
2022-10-13T17:09:00.415Z,24.27
2022-10-13T17:11:45.639Z,25.08
2022-10-13T17:14:30.824Z,26.52
2022-10-13T17:17:16.259Z,25.80
2022-10-13T17:20:04.999Z,28.63
2022-10-13T17:22:58.043Z,27.45
2022-10-13T17:25:43.661Z,26.45
2022-10-13T17:28:34.976Z,27.38
2022-10-13T17:31:22.724Z,29.63
2022-10-13T17:34:11.075Z,30.20
2022-10-13T17:36:56.039Z,30.00
2022-10-13T17:39:40.889Z,29.05
2022-10-13T17:42:29.751Z,32.50
2022-10-13T17:45:15.359Z,32.60
2022-10-13T17:48:00.544Z,30.88
2022-10-13T17:50:45.722Z,32.30
2022-10-13T17:53:31.671Z,31.00
2022-10-13T17:56:19.605Z,30.08
2022-10-13T17:59:04.597Z,28.60
2022-10-13T18:01:49.646Z,30.08
2022-10-13T18:04:35.083Z,29.10
2022-10-13T18:07:20.737Z,28.40
2022-10-13T18:10:08.513Z,29.73
2022-10-13T18:12:53.759Z,31.42
2022-10-13T18:15:39.173Z,29.45
2022-10-13T18:18:24.682Z,29.85
2022-10-13T18:21:11.713Z,29.75
2022-10-13T18:23:59.355Z,30.05
2022-10-13T18:26:44.666Z,32.17
2022-10-13T18:29:32.958Z,30.58
2022-10-13T18:32:18.326Z,29.88
2022-10-13T18:35:04.068Z,34.10
2022-10-13T18:37:54.056Z,33.00
2022-10-13T18:40:39.029Z,29.70
2022-10-13T18:43:24.160Z,33.90
2022-10-13T18:46:10.063Z,33.10
2022-10-13T18:48:58.828Z,35.17
2022-10-13T18:51:43.976Z,32.38
2022-10-13T18:54:30.641Z,33.00
2022-10-13T18:57:17.987Z,32.13
2022-10-13T19:00:04.700Z,31.83
2022-10-13T19:02:49.839Z,32.78
2022-10-13T19:05:41.751Z,32.38
2022-10-13T19:08:28.643Z,31.00
2022-10-13T19:11:21.059Z,31.50
2022-10-13T19:14:08.278Z,32.10
2022-10-13T19:16:56.112Z,30.67
2022-10-13T19:19:44.627Z,30.17
2022-10-13T19:22:29.684Z,32.22
2022-10-13T19:25:15.475Z,29.48
2022-10-13T19:28:01.949Z,29.13
2022-10-13T19:30:49.484Z,30.25
2022-10-13T19:33:43.481Z,30.75
2022-10-13T19:36:33.326Z,31.35
2022-10-13T19:39:24.429Z,30.13
2022-10-13T19:42:10.007Z,30.95
2022-10-13T19:44:54.975Z,29.88
2022-10-13T19:47:41.277Z,29.15
2022-10-13T19:50:26.559Z,30.17
2022-10-13T19:53:11.819Z,28.00
2022-10-13T19:55:57.138Z,28.85
2022-10-13T19:58:42.733Z,29.38
2022-10-13T20:01:28.318Z,28.80
2022-10-13T20:04:14.978Z,29.38
2022-10-13T20:06:59.844Z,27.98
2022-10-13T20:09:45.527Z,29.40
2022-10-13T20:12:30.682Z,28.35
2022-10-13T20:15:16.251Z,28.35
2022-10-13T20:18:01.500Z,30.00
2022-10-13T20:20:46.949Z,31.38
2022-10-13T20:23:32.843Z,31.35
2022-10-13T20:26:19.433Z,33.80
2022-10-13T20:29:07.870Z,32.45
2022-10-13T20:31:52.946Z,33.75
2022-10-13T20:34:37.891Z,35.40
2022-10-13T20:37:26.261Z,32.15
2022-10-13T20:40:11.671Z,30.90
2022-10-13T20:42:58.134Z,32.90
2022-10-13T20:45:43.461Z,35.60
2022-10-13T20:48:40.717Z,35.10
2022-10-13T20:51:36.145Z,34.33
2022-10-13T20:54:21.141Z,37.03
2022-10-13T20:57:06.615Z,58.38
2022-10-13T20:59:52.021Z,46.10
2022-10-13T21:02:37.067Z,40.38
2022-10-13T21:05:22.264Z,39.72
2022-10-13T21:08:07.205Z,40.67
2022-10-13T21:10:52.231Z,38.10
2022-10-13T21:13:39.372Z,37.03
2022-10-13T21:16:27.636Z,35.67
2022-10-13T21:19:12.708Z,35.78
2022-10-13T21:21:57.656Z,36.95
2022-10-13T21:24:42.668Z,36.03
2022-10-13T21:27:28.193Z,34.97
2022-10-13T21:30:13.861Z,38.50
2022-10-13T21:32:59.138Z,35.60
2022-10-13T21:35:44.045Z,34.45
2022-10-13T21:38:29.243Z,32.88
2022-10-13T21:41:14.725Z,31.80
2022-10-13T21:43:59.960Z,30.73
2022-10-13T21:46:44.736Z,30.00
2022-10-13T21:49:29.783Z,32.15
2022-10-13T21:52:15.397Z,31.13
2022-10-13T21:55:00.434Z,29.80
2022-10-13T21:57:45.840Z,29.92
2022-10-13T22:00:30.923Z,30.67
2022-10-13T22:03:16.280Z,32.05
2022-10-13T22:06:05.999Z,33.25
2022-10-13T22:08:53.247Z,34.63
2022-10-13T22:11:39.101Z,33.38
2022-10-13T22:14:25.213Z,34.28
2022-10-13T22:17:10.373Z,37.38
2022-10-13T22:19:55.720Z,37.30
2022-10-13T22:22:40.584Z,34.25
2022-10-13T22:25:25.500Z,35.85
2022-10-13T22:28:10.404Z,36.17
2022-10-13T22:30:55.227Z,36.65
2022-10-13T22:33:42.555Z,36.47
2022-10-13T22:36:28.310Z,34.65
2022-10-13T22:39:14.418Z,36.83
2022-10-13T22:41:59.706Z,34.38
2022-10-13T22:44:44.753Z,36.40
2022-10-13T22:47:29.995Z,34.90
2022-10-13T22:50:15.220Z,37.30
2022-10-13T22:53:00.301Z,37.95
2022-10-13T22:55:45.292Z,35.70
2022-10-13T22:58:30.919Z,35.90
2022-10-13T23:01:16.119Z,36.80
2022-10-13T23:04:01.476Z,38.38
2022-10-13T23:06:46.510Z,38.15
2022-10-13T23:09:31.889Z,40.13
2022-10-13T23:12:16.844Z,39.28
2022-10-13T23:15:01.750Z,40.45
2022-10-13T23:17:46.751Z,41.85
2022-10-13T23:20:32.398Z,43.22
2022-10-13T23:23:17.559Z,45.15
2022-10-13T23:26:12.638Z,45.17
2022-10-13T23:28:58.485Z,47.33
2022-10-13T23:31:43.623Z,47.10
2022-10-13T23:34:28.698Z,44.90
2022-10-13T23:37:13.586Z,47.10
2022-10-13T23:39:58.972Z,48.78
2022-10-13T23:42:44.302Z,49.65
2022-10-13T23:45:29.257Z,46.03
2022-10-13T23:48:15.452Z,46.55
2022-10-13T23:51:09.615Z,46.95
2022-10-13T23:53:55.625Z,47.30
2022-10-13T23:56:40.954Z,48.17
2022-10-13T23:59:26.042Z,46.53
